Terminal Aerodrome Forecast
Issued by NWS Knoxville/Tri Cities, TN

Home | Current Version | Previous Version | Text Only | Print | Product List | Glossary On
Versions: 1 2 3 4 5 6 7 8 9 10 11 12 13 14 15 16 17 18 19 20 21 22 23 24 25 26 27 28 29 30 31 32 33 34 35 36 37 38
000
FTUS44 KMRX 241226 AAA
TAFTYS
TAF AMD
KTYS 241226Z 2412/2512 VRB04KT 5SM BR SCT004 BKN050 BKN100
     FM241430 19009KT 3SM -SHRA VCTS SCT015 BKN025CB
     FM241630 21017G24KT P6SM VCTS BKN040CB
     FM242200 23014KT P6SM VCSH BKN040
     FM250200 24008KT P6SM SCT040 BKN150
     FM250700 23006KT 6SM BR SCT002 BKN050=

USA.gov is the U.S. government's official web portal to all federal, state and local government web resources and services.